createdAt,value
2022-12-26T00:00:02.426Z,6.78
2022-12-26T00:05:09.429Z,6.75
2022-12-26T00:10:12.540Z,6.71
2022-12-26T00:15:16.703Z,6.65
2022-12-26T00:20:19.543Z,6.81
2022-12-26T00:25:22.430Z,6.74
2022-12-26T00:30:26.531Z,6.76
2022-12-26T00:35:29.289Z,6.86
2022-12-26T00:40:32.088Z,6.70
2022-12-26T00:45:36.262Z,6.80
2022-12-26T00:50:39.037Z,6.84
2022-12-26T00:55:41.877Z,6.75
2022-12-26T01:00:46.314Z,6.67
2022-12-26T01:05:51.968Z,6.60
2022-12-26T01:10:54.725Z,6.52
2022-12-26T01:15:59.086Z,6.50
2022-12-26T01:21:03.575Z,6.52
2022-12-26T01:26:16.909Z,6.74
2022-12-26T01:31:24.883Z,6.81
2022-12-26T01:36:27.734Z,6.68
2022-12-26T01:41:33.156Z,6.81
2022-12-26T01:46:41.550Z,6.93
2022-12-26T01:51:46.040Z,6.80
2022-12-26T01:56:49.566Z,6.77
2022-12-26T02:01:55.275Z,6.90
2022-12-26T02:07:00.954Z,6.79
2022-12-26T02:12:33.761Z,6.81
2022-12-26T02:17:33.882Z,6.77
2022-12-26T02:23:05.483Z,6.87
2022-12-26T02:28:32.550Z,6.80
2022-12-26T02:33:51.039Z,6.74
2022-12-26T02:39:04.047Z,6.92
2022-12-26T02:44:49.967Z,6.89
2022-12-26T02:50:22.440Z,6.88
2022-12-26T02:55:47.107Z,7.00
2022-12-26T03:01:14.896Z,7.18
2022-12-26T03:06:40.747Z,7.12
2022-12-26T03:12:06.709Z,7.22
2022-12-26T03:17:22.438Z,7.39
2022-12-26T03:22:31.524Z,7.26
2022-12-26T03:27:34.957Z,7.33
2022-12-26T03:32:43.670Z,7.32
2022-12-26T03:37:54.097Z,7.47
2022-12-26T03:43:28.287Z,7.35
2022-12-26T03:48:51.578Z,7.34
2022-12-26T03:54:20.641Z,7.34
2022-12-26T03:59:48.570Z,7.47
2022-12-26T04:05:12.927Z,7.30
2022-12-26T04:10:38.566Z,7.51
2022-12-26T04:16:04.119Z,7.66
2022-12-26T04:21:34.990Z,7.43
2022-12-26T04:27:02.491Z,7.41
2022-12-26T04:32:30.188Z,7.36
2022-12-26T04:37:52.354Z,7.59
2022-12-26T04:43:47.063Z,7.55
2022-12-26T04:49:02.083Z,7.52
2022-12-26T04:54:05.597Z,7.61
2022-12-26T04:59:10.169Z,7.67
2022-12-26T05:04:32.407Z,7.59
2022-12-26T05:09:36.702Z,7.64
2022-12-26T05:14:41.574Z,7.77
2022-12-26T05:20:02.105Z,7.65
2022-12-26T05:25:23.071Z,7.78
2022-12-26T05:30:27.486Z,7.82
2022-12-26T05:35:30.335Z,7.85
2022-12-26T05:40:33.480Z,7.83
2022-12-26T05:45:37.669Z,7.73
2022-12-26T05:50:40.404Z,7.61
2022-12-26T05:55:43.254Z,7.71
2022-12-26T06:00:47.565Z,7.73
2022-12-26T06:05:50.307Z,7.85
2022-12-26T06:10:53.498Z,7.93
2022-12-26T06:15:58.541Z,7.94
2022-12-26T06:21:04.925Z,7.90
2022-12-26T06:26:10.249Z,7.81
2022-12-26T06:31:18.061Z,7.77
2022-12-26T06:36:23.097Z,7.93
2022-12-26T06:41:26.756Z,7.84
2022-12-26T06:46:30.999Z,7.79
2022-12-26T06:51:35.302Z,7.91
2022-12-26T06:56:38.194Z,7.75
2022-12-26T07:01:42.478Z,7.95
2022-12-26T07:06:45.340Z,7.94
2022-12-26T07:11:49.870Z,7.82
2022-12-26T07:16:54.131Z,7.89
2022-12-26T07:21:56.893Z,7.95
2022-12-26T07:26:59.812Z,8.15
2022-12-26T07:32:04.048Z,8.02
2022-12-26T07:37:06.944Z,8.04
2022-12-26T07:42:09.765Z,8.08
2022-12-26T07:47:13.952Z,8.18
2022-12-26T07:52:16.831Z,8.09
2022-12-26T07:57:47.521Z,7.95
2022-12-26T08:02:43.904Z,8.01
2022-12-26T08:07:47.682Z,8.20
2022-12-26T08:12:50.463Z,8.43
2022-12-26T08:17:54.575Z,8.46
2022-12-26T08:28:05.292Z,8.74
2022-12-26T08:33:10.569Z,8.49
2022-12-26T08:38:13.316Z,8.68
2022-12-26T08:48:41.959Z,8.86
2022-12-26T08:53:45.900Z,8.90
2022-12-26T08:58:48.788Z,8.91
2022-12-26T09:03:57.362Z,8.88
2022-12-26T09:09:00.813Z,8.83
2022-12-26T09:14:04.966Z,8.82
2022-12-26T09:19:12.021Z,8.73
2022-12-26T09:24:17.677Z,8.84
2022-12-26T09:29:20.477Z,9.00
2022-12-26T09:34:24.643Z,8.67
2022-12-26T09:39:27.542Z,8.74
2022-12-26T09:44:40.949Z,8.99
2022-12-26T09:49:51.844Z,8.94
2022-12-26T09:54:59.852Z,9.04
2022-12-26T10:00:05.394Z,9.02
2022-12-26T10:05:16.649Z,9.28
2022-12-26T10:10:26.694Z,9.16
2022-12-26T10:15:39.264Z,9.07
2022-12-26T10:20:55.314Z,9.18
2022-12-26T10:26:04.838Z,9.08
2022-12-26T10:31:14.526Z,9.07
2022-12-26T10:36:28.131Z,9.20
2022-12-26T10:41:36.827Z,9.23
2022-12-26T10:46:54.876Z,9.42
2022-12-26T10:52:02.393Z,9.58
2022-12-26T10:57:08.345Z,9.60
2022-12-26T11:02:24.443Z,9.84
2022-12-26T11:07:32.117Z,9.82
2022-12-26T11:12:41.241Z,9.63
2022-12-26T11:17:46.228Z,9.42
2022-12-26T11:22:51.783Z,9.54
2022-12-26T11:27:56.715Z,9.56
2022-12-26T11:33:22.168Z,9.64
2022-12-26T11:38:44.938Z,9.55
2022-12-26T11:43:49.273Z,9.54
2022-12-26T11:48:52.662Z,9.76
2022-12-26T11:54:16.792Z,9.87
2022-12-26T11:59:23.702Z,9.88
2022-12-26T12:04:26.511Z,9.88
2022-12-26T12:09:38.825Z,9.62
2022-12-26T12:14:54.967Z,9.48
2022-12-26T12:20:18.743Z,9.66
2022-12-26T12:25:40.730Z,9.60
2022-12-26T12:30:52.202Z,9.39
2022-12-26T12:36:07.495Z,9.50
2022-12-26T12:41:41.959Z,9.53
2022-12-26T12:46:56.034Z,9.62
2022-12-26T12:52:14.156Z,9.49
2022-12-26T12:57:29.113Z,9.41
2022-12-26T13:02:37.852Z,9.29
2022-12-26T13:07:47.326Z,9.54
2022-12-26T13:12:54.488Z,9.61
2022-12-26T13:18:02.081Z,9.77
2022-12-26T13:23:33.835Z,9.47
2022-12-26T13:28:46.450Z,9.41
2022-12-26T13:33:49.609Z,9.32
2022-12-26T13:39:29.781Z,9.17
2022-12-26T13:44:34.125Z,8.63
2022-12-26T13:49:41.166Z,8.30
2022-12-26T13:55:17.371Z,8.00
2022-12-26T14:00:26.057Z,8.03
2022-12-26T14:05:36.898Z,7.76
2022-12-26T14:10:46.697Z,7.47
2022-12-26T14:15:58.110Z,7.29
2022-12-26T14:21:23.964Z,7.34
2022-12-26T14:26:39.813Z,7.04
2022-12-26T14:31:57.629Z,6.81
2022-12-26T14:37:10.932Z,6.93
2022-12-26T14:42:38.683Z,6.95
2022-12-26T14:47:45.085Z,6.80
2022-12-26T14:52:49.068Z,6.63
2022-12-26T14:57:52.458Z,6.61
2022-12-26T15:03:21.244Z,6.14
2022-12-26T15:08:41.451Z,6.19
2022-12-26T15:14:13.816Z,6.06
2022-12-26T15:20:02.176Z,5.97
2022-12-26T15:25:33.302Z,5.96
2022-12-26T15:31:05.881Z,5.98
2022-12-26T15:36:21.251Z,6.08
2022-12-26T15:41:36.146Z,5.84
2022-12-26T15:46:45.088Z,5.87
2022-12-26T15:51:57.602Z,5.66
2022-12-26T15:57:16.054Z,5.50
2022-12-26T16:02:34.411Z,5.44
2022-12-26T16:07:44.036Z,5.66
2022-12-26T16:12:59.791Z,5.68
2022-12-26T16:18:15.175Z,5.50
2022-12-26T16:23:24.622Z,5.19
2022-12-26T16:28:32.290Z,5.24
2022-12-26T16:33:40.940Z,5.05
2022-12-26T16:38:45.623Z,5.13
2022-12-26T16:43:49.408Z,5.18
2022-12-26T16:48:55.702Z,5.27
2022-12-26T16:54:15.896Z,5.36
2022-12-26T16:59:21.104Z,5.29
2022-12-26T17:04:25.961Z,5.18
2022-12-26T17:09:40.769Z,5.11
2022-12-26T17:14:48.233Z,5.27
2022-12-26T17:19:54.440Z,4.98
2022-12-26T17:25:20.354Z,4.93
2022-12-26T17:30:29.255Z,4.93
2022-12-26T17:36:21.353Z,4.91
2022-12-26T17:40:59.787Z,4.95
2022-12-26T17:46:03.666Z,4.82
2022-12-26T17:51:09.422Z,4.78
2022-12-26T17:56:16.927Z,4.69
2022-12-26T18:01:22.070Z,4.58
2022-12-26T18:06:25.460Z,4.63
2022-12-26T18:11:29.732Z,4.76
2022-12-26T18:16:33.707Z,4.54
2022-12-26T18:21:36.562Z,4.53
2022-12-26T18:26:41.140Z,4.48
2022-12-26T18:31:43.981Z,4.33
2022-12-26T18:36:46.906Z,4.24
2022-12-26T18:41:51.080Z,4.15
2022-12-26T18:46:53.840Z,4.08
2022-12-26T18:51:56.586Z,4.18
2022-12-26T18:57:00.957Z,4.07
2022-12-26T19:02:03.817Z,4.00
2022-12-26T19:07:06.758Z,3.90
2022-12-26T19:12:10.948Z,3.89
2022-12-26T19:17:14.043Z,3.91
2022-12-26T19:22:16.936Z,3.90
2022-12-26T19:27:21.839Z,3.86
2022-12-26T19:32:24.553Z,3.93
2022-12-26T19:37:27.338Z,3.78
2022-12-26T19:42:33.734Z,3.86
2022-12-26T19:47:36.567Z,3.87
2022-12-26T19:52:40.703Z,3.64
2022-12-26T19:57:47.556Z,3.79
2022-12-26T20:02:50.411Z,3.74
2022-12-26T20:07:53.240Z,3.66
2022-12-26T20:12:57.437Z,3.55
2022-12-26T20:18:00.883Z,3.61
2022-12-26T20:23:03.882Z,3.50
2022-12-26T20:28:09.217Z,3.34
2022-12-26T20:33:12.024Z,3.37
2022-12-26T20:38:16.644Z,3.29
2022-12-26T20:43:22.177Z,3.28
2022-12-26T20:48:25.377Z,3.21
2022-12-26T20:53:28.825Z,3.26
2022-12-26T20:58:37.290Z,3.14
2022-12-26T21:03:40.356Z,3.13
2022-12-26T21:08:45.462Z,3.22
2022-12-26T21:13:51.105Z,3.26
2022-12-26T21:19:00.783Z,3.49
2022-12-26T21:24:06.990Z,3.68
2022-12-26T21:29:14.289Z,3.77
2022-12-26T21:34:18.790Z,3.87
2022-12-26T21:39:21.539Z,3.78
2022-12-26T21:44:25.765Z,3.60
2022-12-26T21:49:28.946Z,3.54
2022-12-26T21:54:49.639Z,3.52
2022-12-26T22:00:00.004Z,3.34
2022-12-26T22:05:03.168Z,3.36
2022-12-26T22:10:06.620Z,3.33
2022-12-26T22:15:31.909Z,3.31
2022-12-26T22:20:35.471Z,3.29
2022-12-26T22:25:43.482Z,3.28
2022-12-26T22:30:55.764Z,3.12
2022-12-26T22:36:05.462Z,3.15
2022-12-26T22:41:13.977Z,3.12
2022-12-26T22:46:21.214Z,3.13
2022-12-26T22:51:26.512Z,3.07
2022-12-26T22:56:30.129Z,3.11
2022-12-26T23:01:34.457Z,3.00
2022-12-26T23:06:42.981Z,2.94
2022-12-26T23:12:06.565Z,3.14
2022-12-26T23:17:35.975Z,3.09
2022-12-26T23:22:39.366Z,3.33
2022-12-26T23:28:00.539Z,3.35
2022-12-26T23:33:04.904Z,3.41
2022-12-26T23:38:07.658Z,3.14
2022-12-26T23:43:13.399Z,3.04
2022-12-26T23:48:17.709Z,3.06
2022-12-26T23:53:20.480Z,2.97
2022-12-26T23:58:23.380Z,2.90
